sensor_id;sensor_type;location;lat;lon;timestamp;pressure;altitude;pressure_sealevel;temperature;humidity
59274;BME280;45044;41.572;24.730;2023-04-04T00:00:37;90038.78;;;5.31;100.00
59274;BME280;45044;41.572;24.730;2023-04-04T00:03:05;90047.75;;;5.45;100.00
59274;BME280;45044;41.572;24.730;2023-04-04T00:05:32;90047.69;;;5.08;100.00
59274;BME280;45044;41.572;24.730;2023-04-04T00:08:02;90056.97;;;4.98;100.00
59274;BME280;45044;41.572;24.730;2023-04-04T00:10:29;90055.94;;;5.39;100.00
59274;BME280;45044;41.572;24.730;2023-04-04T00:12:55;90052.97;;;5.45;100.00
59274;BME280;45044;41.572;24.730;2023-04-04T00:15:22;90044.41;;;5.51;100.00
59274;BME280;45044;41.572;24.730;2023-04-04T00:17:49;90051.84;;;5.75;100.00
59274;BME280;45044;41.572;24.730;2023-04-04T00:20:16;90062.28;;;5.68;100.00
59274;BME280;45044;41.572;24.730;2023-04-04T00:22:43;90051.47;;;5.73;100.00
59274;BME280;45044;41.572;24.730;2023-04-04T00:25:10;90039.56;;;5.46;100.00
59274;BME280;45044;41.572;24.730;2023-04-04T00:27:37;90042.16;;;5.50;100.00
59274;BME280;45044;41.572;24.730;2023-04-04T00:30:05;90041.75;;;5.22;100.00
59274;BME280;45044;41.572;24.730;2023-04-04T00:32:32;90037.69;;;5.36;100.00
59274;BME280;45044;41.572;24.730;2023-04-04T00:34:59;90037.31;;;5.59;100.00
59274;BME280;45044;41.572;24.730;2023-04-04T00:37:25;90039.56;;;5.50;100.00
59274;BME280;45044;41.572;24.730;2023-04-04T00:39:53;90041.03;;;5.51;100.00
59274;BME280;45044;41.572;24.730;2023-04-04T00:42:20;90042.16;;;5.46;100.00
59274;BME280;45044;41.572;24.730;2023-04-04T00:44:47;90036.56;;;5.62;100.00
59274;BME280;45044;41.572;24.730;2023-04-04T00:47:14;90038.81;;;5.82;100.00
59274;BME280;45044;41.572;24.730;2023-04-04T00:49:40;90029.50;;;5.78;100.00
59274;BME280;45044;41.572;24.730;2023-04-04T00:52:07;90026.53;;;5.46;100.00
59274;BME280;45044;41.572;24.730;2023-04-04T00:54:34;90018.69;;;5.57;100.00
59274;BME280;45044;41.572;24.730;2023-04-04T00:57:01;90020.19;;;5.73;100.00
59274;BME280;45044;41.572;24.730;2023-04-04T00:59:30;90012.72;;;5.75;100.00
59274;BME280;45044;41.572;24.730;2023-04-04T01:01:58;90008.25;;;5.83;100.00
59274;BME280;45044;41.572;24.730;2023-04-04T01:04:26;90006.03;;;5.74;100.00
59274;BME280;45044;41.572;24.730;2023-04-04T01:06:57;90004.16;;;5.71;100.00
59274;BME280;45044;41.572;24.730;2023-04-04T01:09:25;90013.09;;;5.84;100.00
59274;BME280;45044;41.572;24.730;2023-04-04T01:11:52;90008.22;;;6.01;100.00
59274;BME280;45044;41.572;24.730;2023-04-04T01:14:23;90000.03;;;5.95;100.00
59274;BME280;45044;41.572;24.730;2023-04-04T01:16:50;89991.84;;;5.82;100.00
59274;BME280;45044;41.572;24.730;2023-04-04T01:19:23;89993.69;;;5.96;100.00
59274;BME280;45044;41.572;24.730;2023-04-04T01:21:52;89993.69;;;5.89;100.00
59274;BME280;45044;41.572;24.730;2023-04-04T01:24:20;89988.09;;;5.91;100.00
59274;BME280;45044;41.572;24.730;2023-04-04T01:26:49;89983.66;;;5.73;100.00
59274;BME280;45044;41.572;24.730;2023-04-04T01:29:16;89982.94;;;5.72;100.00
59274;BME280;45044;41.572;24.730;2023-04-04T01:31:56;89978.81;;;5.90;100.00
59274;BME280;45044;41.572;24.730;2023-04-04T01:40:07;89970.97;;;5.86;100.00
59274;BME280;45044;41.572;24.730;2023-04-04T01:42:36;89970.25;;;5.71;100.00
59274;BME280;45044;41.572;24.730;2023-04-04T01:45:06;89974.72;;;5.81;100.00
59274;BME280;45044;41.572;24.730;2023-04-04T01:47:40;89972.50;;;5.76;100.00
59274;BME280;45044;41.572;24.730;2023-04-04T01:50:08;89970.22;;;5.93;100.00
59274;BME280;45044;41.572;24.730;2023-04-04T01:52:36;89973.25;;;5.47;100.00
59274;BME280;45044;41.572;24.730;2023-04-04T01:55:04;89978.09;;;5.53;100.00
59274;BME280;45044;41.572;24.730;2023-04-04T01:57:31;89970.28;;;5.53;100.00
59274;BME280;45044;41.572;24.730;2023-04-04T01:59:58;89964.31;;;5.67;100.00
59274;BME280;45044;41.572;24.730;2023-04-04T02:02:25;89967.66;;;5.67;100.00
59274;BME280;45044;41.572;24.730;2023-04-04T02:04:51;89975.50;;;5.53;100.00
59274;BME280;45044;41.572;24.730;2023-04-04T02:07:19;89969.53;;;5.67;100.00
59274;BME280;45044;41.572;24.730;2023-04-04T02:09:46;89974.75;;;5.70;100.00
59274;BME280;45044;41.572;24.730;2023-04-04T02:12:12;89965.03;;;5.78;100.00
59274;BME280;45044;41.572;24.730;2023-04-04T02:14:39;89972.50;;;5.69;100.00
59274;BME280;45044;41.572;24.730;2023-04-04T02:17:06;89971.00;;;5.64;100.00
59274;BME280;45044;41.572;24.730;2023-04-04T02:19:33;89972.53;;;5.61;100.00
59274;BME280;45044;41.572;24.730;2023-04-04T02:22:01;89970.59;;;5.87;100.00
59274;BME280;45044;41.572;24.730;2023-04-04T02:24:27;89961.31;;;5.86;100.00
59274;BME280;45044;41.572;24.730;2023-04-04T02:26:54;89956.84;;;5.83;100.00
59274;BME280;45044;41.572;24.730;2023-04-04T02:29:21;89957.97;;;5.75;100.00
59274;BME280;45044;41.572;24.730;2023-04-04T02:31:48;89957.19;;;5.89;100.00
59274;BME280;45044;41.572;24.730;2023-04-04T02:34:16;89948.59;;;6.03;100.00
59274;BME280;45044;41.572;24.730;2023-04-04T02:36:42;89952.28;;;6.17;100.00
59274;BME280;45044;41.572;24.730;2023-04-04T02:39:09;89941.88;;;6.09;100.00
59274;BME280;45044;41.572;24.730;2023-04-04T02:41:36;89939.59;;;6.26;100.00
59274;BME280;45044;41.572;24.730;2023-04-04T02:44:03;89944.06;;;6.26;100.00
59274;BME280;45044;41.572;24.730;2023-04-04T02:46:29;89935.09;;;6.30;100.00
59274;BME280;45044;41.572;24.730;2023-04-04T02:48:56;89938.88;;;6.18;100.00
59274;BME280;45044;41.572;24.730;2023-04-04T02:51:23;89939.63;;;6.19;100.00
59274;BME280;45044;41.572;24.730;2023-04-04T02:53:50;89938.84;;;6.26;100.00
59274;BME280;45044;41.572;24.730;2023-04-04T02:56:16;89938.88;;;6.15;100.00
59274;BME280;45044;41.572;24.730;2023-04-04T02:58:43;89935.56;;;6.10;100.00
59274;BME280;45044;41.572;24.730;2023-04-04T03:01:10;89931.03;;;6.18;100.00
59274;BME280;45044;41.572;24.730;2023-04-04T03:03:36;89935.13;;;6.23;100.00
59274;BME280;45044;41.572;24.730;2023-04-04T03:06:03;89941.06;;;6.23;100.00
59274;BME280;45044;41.572;24.730;2023-04-04T03:08:30;89932.56;;;6.05;100.00
59274;BME280;45044;41.572;24.730;2023-04-04T03:10:57;89936.31;;;5.89;100.00
59274;BME280;45044;41.572;24.730;2023-04-04T03:13:24;89937.41;;;6.06;100.00
59274;BME280;45044;41.572;24.730;2023-04-04T03:15:59;89941.84;;;6.17;100.00
59274;BME280;45044;41.572;24.730;2023-04-04T03:18:32;89940.34;;;6.23;100.00
59274;BME280;45044;41.572;24.730;2023-04-04T03:21:00;89939.56;;;6.33;100.00
59274;BME280;45044;41.572;24.730;2023-04-04T03:23:26;89929.84;;;6.38;100.00
59274;BME280;45044;41.572;24.730;2023-04-04T03:25:53;89932.16;;;6.21;100.00
59274;BME280;45044;41.572;24.730;2023-04-04T03:28:21;89941.44;;;6.29;100.00
59274;BME280;45044;41.572;24.730;2023-04-04T03:30:48;89934.75;;;6.21;100.00
59274;BME280;45044;41.572;24.730;2023-04-04T03:33:16;89942.63;;;6.06;100.00
59274;BME280;45044;41.572;24.730;2023-04-04T03:35:43;89946.75;;;5.93;100.00
59274;BME280;45044;41.572;24.730;2023-04-04T03:38:10;89944.16;;;5.85;100.00
59274;BME280;45044;41.572;24.730;2023-04-04T03:40:36;89948.25;;;5.90;100.00
59274;BME280;45044;41.572;24.730;2023-04-04T03:43:07;89947.84;;;5.99;100.00
59274;BME280;45044;41.572;24.730;2023-04-04T03:45:34;89947.84;;;6.03;100.00
59274;BME280;45044;41.572;24.730;2023-04-04T03:48:04;89951.56;;;5.94;100.00
59274;BME280;45044;41.572;24.730;2023-04-04T03:50:31;89950.84;;;6.08;100.00
59274;BME280;45044;41.572;24.730;2023-04-04T03:52:58;89942.66;;;5.92;100.00
59274;BME280;45044;41.572;24.730;2023-04-04T03:55:24;89930.00;;;5.86;100.00
59274;BME280;45044;41.572;24.730;2023-04-04T03:57:52;89944.16;;;5.85;100.00
59274;BME280;45044;41.572;24.730;2023-04-04T04:00:19;89936.72;;;5.77;100.00
59274;BME280;45044;41.572;24.730;2023-04-04T04:02:46;89949.38;;;5.85;100.00
59274;BME280;45044;41.572;24.730;2023-04-04T04:05:13;89950.13;;;5.86;100.00
59274;BME280;45044;41.572;24.730;2023-04-04T04:07:42;89964.69;;;5.80;100.00
59274;BME280;45044;41.572;24.730;2023-04-04T04:10:10;89952.34;;;5.84;100.00
59274;BME280;45044;41.572;24.730;2023-04-04T04:12:39;89963.50;;;6.06;100.00
59274;BME280;45044;41.572;24.730;2023-04-04T04:15:07;89960.91;;;5.99;100.00
59274;BME280;45044;41.572;24.730;2023-04-04T04:17:37;89965.72;;;6.04;100.00
59274;BME280;45044;41.572;24.730;2023-04-04T04:20:06;89970.97;;;5.93;100.00
59274;BME280;45044;41.572;24.730;2023-04-04T04:22:33;89972.81;;;5.93;100.00
59274;BME280;45044;41.572;24.730;2023-04-04T04:25:00;89966.16;;;5.77;100.00
59274;BME280;45044;41.572;24.730;2023-04-04T04:27:26;89959.09;;;5.63;100.00
59274;BME280;45044;41.572;24.730;2023-04-04T04:29:53;89974.72;;;5.92;100.00
59274;BME280;45044;41.572;24.730;2023-04-04T04:32:20;89973.94;;;5.99;100.00
59274;BME280;45044;41.572;24.730;2023-04-04T04:34:47;89975.41;;;5.96;100.00
59274;BME280;45044;41.572;24.730;2023-04-04T04:37:14;89969.47;;;5.96;100.00
59274;BME280;45044;41.572;24.730;2023-04-04T04:39:41;89969.47;;;6.07;100.00
59274;BME280;45044;41.572;24.730;2023-04-04T04:42:07;89964.25;;;6.07;100.00
59274;BME280;45044;41.572;24.730;2023-04-04T04:44:34;89967.22;;;6.02;100.00
59274;BME280;45044;41.572;24.730;2023-04-04T04:47:02;89963.16;;;5.90;100.00
59274;BME280;45044;41.572;24.730;2023-04-04T04:49:29;89965.34;;;6.02;100.00
59274;BME280;45044;41.572;24.730;2023-04-04T04:51:56;89966.09;;;6.03;100.00
59274;BME280;45044;41.572;24.730;2023-04-04T04:54:23;89967.97;;;5.98;100.00
59274;BME280;45044;41.572;24.730;2023-04-04T04:56:50;89960.19;;;5.69;100.00
59274;BME280;45044;41.572;24.730;2023-04-04T04:59:17;89978.81;;;5.71;100.00
59274;BME280;45044;41.572;24.730;2023-04-04T05:01:44;89989.59;;;5.92;100.00
59274;BME280;45044;41.572;24.730;2023-04-04T05:04:11;89984.00;;;6.11;100.00
59274;BME280;45044;41.572;24.730;2023-04-04T05:06:38;89986.94;;;6.25;100.00
59274;BME280;45044;41.572;24.730;2023-04-04T05:09:05;89972.38;;;6.31;100.00
59274;BME280;45044;41.572;24.730;2023-04-04T05:11:32;89980.91;;;6.39;100.00
59274;BME280;45044;41.572;24.730;2023-04-04T05:13:59;89982.44;;;6.36;100.00
59274;BME280;45044;41.572;24.730;2023-04-04T05:16:25;89983.50;;;6.50;100.00
59274;BME280;45044;41.572;24.730;2023-04-04T05:18:52;89979.03;;;6.46;100.00
59274;BME280;45044;41.572;24.730;2023-04-04T05:21:19;89977.16;;;6.47;100.00
59274;BME280;45044;41.572;24.730;2023-04-04T05:23:46;89981.38;;;6.19;100.00
59274;BME280;45044;41.572;24.730;2023-04-04T05:26:14;89984.72;;;6.05;100.00
59274;BME280;45044;41.572;24.730;2023-04-04T05:28:40;89993.63;;;6.26;100.00
59274;BME280;45044;41.572;24.730;2023-04-04T05:31:07;90002.19;;;6.33;100.00
59274;BME280;45044;41.572;24.730;2023-04-04T05:33:34;90005.91;;;6.40;100.00
59274;BME280;45044;41.572;24.730;2023-04-04T05:36:01;90007.72;;;6.54;100.00
59274;BME280;45044;41.572;24.730;2023-04-04T05:38:28;90007.38;;;6.48;100.00
59274;BME280;45044;41.572;24.730;2023-04-04T05:40:56;89993.88;;;6.61;100.00
59274;BME280;45044;41.572;24.730;2023-04-04T05:43:23;89999.84;;;6.65;100.00
59274;BME280;45044;41.572;24.730;2023-04-04T05:45:50;90001.34;;;6.58;100.00
59274;BME280;45044;41.572;24.730;2023-04-04T05:48:16;90014.53;;;6.26;100.00
59274;BME280;45044;41.572;24.730;2023-04-04T05:50:44;90015.28;;;6.26;100.00
59274;BME280;45044;41.572;24.730;2023-04-04T05:53:12;90015.63;;;6.32;100.00
59274;BME280;45044;41.572;24.730;2023-04-04T05:55:38;90015.56;;;6.50;100.00
59274;BME280;45044;41.572;24.730;2023-04-04T05:58:05;90005.03;;;6.76;100.00
59274;BME280;45044;41.572;24.730;2023-04-04T06:00:32;90006.06;;;6.86;100.00
59274;BME280;45044;41.572;24.730;2023-04-04T06:02:59;90001.91;;;6.99;100.00
59274;BME280;45044;41.572;24.730;2023-04-04T06:05:26;90015.38;;;6.94;100.00
59274;BME280;45044;41.572;24.730;2023-04-04T06:07:52;90015.38;;;6.94;100.00
59274;BME280;45044;41.572;24.730;2023-04-04T06:10:19;90005.41;;;6.74;100.00
59274;BME280;45044;41.572;24.730;2023-04-04T06:12:46;90005.81;;;6.62;100.00
59274;BME280;45044;41.572;24.730;2023-04-04T06:15:13;90014.44;;;6.51;100.00
59274;BME280;45044;41.572;24.730;2023-04-04T06:17:40;90005.13;;;6.46;100.00
59274;BME280;45044;41.572;24.730;2023-04-04T06:20:07;90002.06;;;6.70;100.00
59274;BME280;45044;41.572;24.730;2023-04-04T06:22:34;89997.13;;;6.87;100.00
59274;BME280;45044;41.572;24.730;2023-04-04T06:25:01;89994.47;;;6.94;100.00
59274;BME280;45044;41.572;24.730;2023-04-04T06:27:27;89991.16;;;6.86;100.00
59274;BME280;45044;41.572;24.730;2023-04-04T06:29:54;89995.25;;;6.83;100.00
59274;BME280;45044;41.572;24.730;2023-04-04T06:32:21;89997.75;;;7.05;100.00
59274;BME280;45044;41.572;24.730;2023-04-04T06:34:48;89991.94;;;7.36;100.00
59274;BME280;45044;41.572;24.730;2023-04-04T06:37:15;89995.84;;;7.13;100.00
59274;BME280;45044;41.572;24.730;2023-04-04T06:39:42;89986.81;;;7.25;100.00
59274;BME280;45044;41.572;24.730;2023-04-04T06:42:08;89990.97;;;7.19;100.00
59274;BME280;45044;41.572;24.730;2023-04-04T06:44:35;89987.94;;;7.24;100.00
59274;BME280;45044;41.572;24.730;2023-04-04T06:47:02;89987.19;;;7.73;100.00
59274;BME280;45044;41.572;24.730;2023-04-04T06:49:29;89979.66;;;8.21;100.00
59274;BME280;45044;41.572;24.730;2023-04-04T06:51:55;89978.56;;;8.50;100.00
59274;BME280;45044;41.572;24.730;2023-04-04T06:54:23;89983.72;;;8.22;100.00
59274;BME280;45044;41.572;24.730;2023-04-04T06:56:50;89973.06;;;8.41;100.00
59274;BME280;45044;41.572;24.730;2023-04-04T06:59:18;89958.63;;;8.60;100.00
59274;BME280;45044;41.572;24.730;2023-04-04T07:01:44;89981.72;;;9.00;100.00
59274;BME280;45044;41.572;24.730;2023-04-04T07:04:12;89978.38;;;9.00;100.00
59274;BME280;45044;41.572;24.730;2023-04-04T07:06:38;89985.06;;;8.38;100.00
59274;BME280;45044;41.572;24.730;2023-04-04T07:09:05;89980.75;;;8.20;100.00
59274;BME280;45044;41.572;24.730;2023-04-04T07:11:44;89984.59;;;8.47;100.00
59274;BME280;45044;41.572;24.730;2023-04-04T07:14:11;89989.50;;;8.76;100.00
59274;BME280;45044;41.572;24.730;2023-04-04T07:16:37;89986.28;;;8.96;100.00
59274;BME280;45044;41.572;24.730;2023-04-04T07:19:04;89987.06;;;9.48;100.00
59274;BME280;45044;41.572;24.730;2023-04-04T07:21:31;89982.59;;;10.37;100.00
59274;BME280;45044;41.572;24.730;2023-04-04T07:23:58;89986.56;;;10.86;100.00
59274;BME280;45044;41.572;24.730;2023-04-04T07:26:25;89989.66;;;10.40;100.00
59274;BME280;45044;41.572;24.730;2023-04-04T07:28:52;89990.28;;;10.04;100.00
59274;BME280;45044;41.572;24.730;2023-04-04T07:31:18;89989.16;;;10.05;100.00
59274;BME280;45044;41.572;24.730;2023-04-04T07:33:45;89999.97;;;9.87;100.00
59274;BME280;45044;41.572;24.730;2023-04-04T07:36:12;89998.91;;;9.80;100.00
59274;BME280;45044;41.572;24.730;2023-04-04T07:38:39;89995.06;;;10.09;100.00
59274;BME280;45044;41.572;24.730;2023-04-04T07:41:05;89995.09;;;10.29;100.00
59274;BME280;45044;41.572;24.730;2023-04-04T07:43:32;89988.97;;;10.36;100.00
59274;BME280;45044;41.572;24.730;2023-04-04T07:45:59;89998.13;;;10.28;100.00
59274;BME280;45044;41.572;24.730;2023-04-04T07:48:26;89999.84;;;10.14;100.00
59274;BME280;45044;41.572;24.730;2023-04-04T07:50:53;90006.28;;;10.34;100.00
59274;BME280;45044;41.572;24.730;2023-04-04T07:53:20;90002.34;;;10.01;100.00
59274;BME280;45044;41.572;24.730;2023-04-04T07:55:47;90009.94;;;9.96;100.00
59274;BME280;45044;41.572;24.730;2023-04-04T07:58:13;90005.25;;;9.59;100.00
59274;BME280;45044;41.572;24.730;2023-04-04T08:00:41;90012.38;;;9.31;100.00
59274;BME280;45044;41.572;24.730;2023-04-04T08:03:07;90004.13;;;9.32;100.00
59274;BME280;45044;41.572;24.730;2023-04-04T08:05:34;90007.19;;;9.27;100.00
59274;BME280;45044;41.572;24.730;2023-04-04T08:08:01;90008.78;;;9.49;100.00
59274;BME280;45044;41.572;24.730;2023-04-04T08:10:28;89999.38;;;9.75;100.00
59274;BME280;45044;41.572;24.730;2023-04-04T08:12:55;89982.38;;;10.28;100.00
59274;BME280;45044;41.572;24.730;2023-04-04T08:15:21;89984.22;;;10.51;100.00
59274;BME280;45044;41.572;24.730;2023-04-04T08:17:48;89982.31;;;10.72;100.00
59274;BME280;45044;41.572;24.730;2023-04-04T08:20:15;89992.28;;;11.18;100.00
59274;BME280;45044;41.572;24.730;2023-04-04T08:22:42;89997.19;;;11.53;100.00
59274;BME280;45044;41.572;24.730;2023-04-04T08:25:09;89993.81;;;13.44;100.00
59274;BME280;45044;41.572;24.730;2023-04-04T08:27:43;89983.56;;;13.72;100.00
59274;BME280;45044;41.572;24.730;2023-04-04T08:30:12;89987.06;;;13.17;100.00
59274;BME280;45044;41.572;24.730;2023-04-04T08:32:40;89981.53;;;13.50;100.00
59274;BME280;45044;41.572;24.730;2023-04-04T08:35:07;89983.25;;;13.44;100.00
59274;BME280;45044;41.572;24.730;2023-04-04T08:37:34;89979.81;;;12.78;100.00
59274;BME280;45044;41.572;24.730;2023-04-04T08:40:02;89984.44;;;12.74;100.00
59274;BME280;45044;41.572;24.730;2023-04-04T08:42:32;89985.78;;;13.09;100.00
59274;BME280;45044;41.572;24.730;2023-04-04T08:45:04;89987.91;;;13.40;100.00
59274;BME280;45044;41.572;24.730;2023-04-04T08:47:31;89992.19;;;13.99;100.00
59274;BME280;45044;41.572;24.730;2023-04-04T08:49:59;89989.78;;;13.92;100.00
59274;BME280;45044;41.572;24.730;2023-04-04T08:52:32;89995.03;;;14.05;100.00
59274;BME280;45044;41.572;24.730;2023-04-04T08:55:01;89992.31;;;13.95;100.00
59274;BME280;45044;41.572;24.730;2023-04-04T08:57:29;89993.66;;;14.00;100.00
59274;BME280;45044;41.572;24.730;2023-04-04T08:59:56;89990.00;;;13.45;100.00
59274;BME280;45044;41.572;24.730;2023-04-04T09:05:02;89987.75;;;12.91;100.00
59274;BME280;45044;41.572;24.730;2023-04-04T09:07:33;89995.19;;;13.36;100.00
59274;BME280;45044;41.572;24.730;2023-04-04T09:10:04;89995.09;;;13.52;100.00
59274;BME280;45044;41.572;24.730;2023-04-04T09:12:35;89997.81;;;13.88;100.00
59274;BME280;45044;41.572;24.730;2023-04-04T09:15:02;89994.56;;;13.71;100.00
59274;BME280;45044;41.572;24.730;2023-04-04T09:17:29;89989.56;;;13.47;100.00
59274;BME280;45044;41.572;24.730;2023-04-04T09:20:00;89980.78;;;12.42;100.00
59274;BME280;45044;41.572;24.730;2023-04-04T09:22:30;89982.38;;;12.95;100.00
59274;BME280;45044;41.572;24.730;2023-04-04T09:24:57;89977.91;;;12.66;100.00
59274;BME280;45044;41.572;24.730;2023-04-04T09:27:23;89973.19;;;12.14;100.00
59274;BME280;45044;41.572;24.730;2023-04-04T09:29:50;89979.00;;;11.59;100.00
59274;BME280;45044;41.572;24.730;2023-04-04T09:32:19;89983.34;;;11.16;100.00
59274;BME280;45044;41.572;24.730;2023-04-04T09:34:48;89984.91;;;10.93;100.00
59274;BME280;45044;41.572;24.730;2023-04-04T09:37:17;89986.59;;;11.20;100.00
59274;BME280;45044;41.572;24.730;2023-04-04T09:39:45;89976.78;;;11.57;100.00
59274;BME280;45044;41.572;24.730;2023-04-04T09:42:12;89983.34;;;11.49;100.00
59274;BME280;45044;41.572;24.730;2023-04-04T09:44:40;89977.06;;;11.93;100.00
59274;BME280;45044;41.572;24.730;2023-04-04T09:47:23;89977.66;;;12.17;100.00
59274;BME280;45044;41.572;24.730;2023-04-04T09:50:00;89982.16;;;12.17;100.00
59274;BME280;45044;41.572;24.730;2023-04-04T09:52:30;89988.72;;;12.25;100.00
59274;BME280;45044;41.572;24.730;2023-04-04T09:54:59;89977.47;;;12.25;100.00
59274;BME280;45044;41.572;24.730;2023-04-04T09:57:28;89976.41;;;12.05;100.00
59274;BME280;45044;41.572;24.730;2023-04-04T09:59:59;89973.09;;;12.77;100.00
59274;BME280;45044;41.572;24.730;2023-04-04T10:02:29;89982.28;;;12.43;100.00
59274;BME280;45044;41.572;24.730;2023-04-04T10:04:56;89970.31;;;12.08;100.00
59274;BME280;45044;41.572;24.730;2023-04-04T10:07:31;89974.38;;;12.13;100.00
59274;BME280;45044;41.572;24.730;2023-04-04T10:10:06;89973.94;;;11.98;100.00
59274;BME280;45044;41.572;24.730;2023-04-04T10:12:35;89977.25;;;11.69;100.00
59274;BME280;45044;41.572;24.730;2023-04-04T10:15:02;89976.25;;;11.12;100.00
59274;BME280;45044;41.572;24.730;2023-04-04T10:17:31;89979.31;;;10.74;100.00
59274;BME280;45044;41.572;24.730;2023-04-04T10:20:04;89985.06;;;10.45;100.00
59274;BME280;45044;41.572;24.730;2023-04-04T10:22:33;89985.94;;;10.38;100.00
59274;BME280;45044;41.572;24.730;2023-04-04T10:25:02;89983.13;;;10.28;100.00
59274;BME280;45044;41.572;24.730;2023-04-04T10:27:29;89986.66;;;10.62;100.00
59274;BME280;45044;41.572;24.730;2023-04-04T10:29:56;89977.75;;;10.56;100.00
59274;BME280;45044;41.572;24.730;2023-04-04T10:32:48;89984.47;;;10.37;100.00
59274;BME280;45044;41.572;24.730;2023-04-04T10:35:20;89982.34;;;10.07;100.00
59274;BME280;45044;41.572;24.730;2023-04-04T10:37:56;89958.94;;;10.17;100.00
59274;BME280;45044;41.572;24.730;2023-04-04T10:40:25;89988.38;;;10.49;100.00
59274;BME280;45044;41.572;24.730;2023-04-04T10:42:54;89982.78;;;10.47;100.00
59274;BME280;45044;41.572;24.730;2023-04-04T10:45:24;89991.25;;;10.34;100.00
59274;BME280;45044;41.572;24.730;2023-04-04T10:47:53;89985.88;;;10.41;100.00
59274;BME280;45044;41.572;24.730;2023-04-04T10:50:21;89981.13;;;10.57;100.00
59274;BME280;45044;41.572;24.730;2023-04-04T10:52:48;89989.81;;;10.74;100.00
59274;BME280;45044;41.572;24.730;2023-04-04T10:55:16;89991.22;;;10.78;100.00
59274;BME280;45044;41.572;24.730;2023-04-04T10:57:48;89990.53;;;10.34;100.00
59274;BME280;45044;41.572;24.730;2023-04-04T11:00:18;89989.47;;;10.92;100.00
59274;BME280;45044;41.572;24.730;2023-04-04T11:05:32;90003.09;;;11.41;100.00
59274;BME280;45044;41.572;24.730;2023-04-04T11:08:04;89995.28;;;11.37;100.00
59274;BME280;45044;41.572;24.730;2023-04-04T11:10:36;89988.94;;;12.01;100.00
59274;BME280;45044;41.572;24.730;2023-04-04T11:13:17;89986.16;;;12.38;100.00
59274;BME280;45044;41.572;24.730;2023-04-04T11:18:19;89989.09;;;11.44;100.00
59274;BME280;45044;41.572;24.730;2023-04-04T11:21:02;89993.38;;;11.21;100.00
59274;BME280;45044;41.572;24.730;2023-04-04T11:26:17;89984.63;;;10.70;100.00
59274;BME280;45044;41.572;24.730;2023-04-04T11:28:45;89992.75;;;11.50;100.00
59274;BME280;45044;41.572;24.730;2023-04-04T11:34:01;89990.50;;;10.95;100.00
59274;BME280;45044;41.572;24.730;2023-04-04T11:39:15;90009.28;;;10.12;100.00
59274;BME280;45044;41.572;24.730;2023-04-04T11:42:05;90009.06;;;10.87;100.00
59274;BME280;45044;41.572;24.730;2023-04-04T11:45:01;90009.94;;;11.01;100.00
59274;BME280;45044;41.572;24.730;2023-04-04T11:47:30;90012.03;;;11.26;100.00
59274;BME280;45044;41.572;24.730;2023-04-04T11:49:59;90016.94;;;11.08;100.00
59274;BME280;45044;41.572;24.730;2023-04-04T11:52:33;90012.91;;;11.03;100.00
59274;BME280;45044;41.572;24.730;2023-04-04T11:55:16;89993.53;;;11.13;100.00
59274;BME280;45044;41.572;24.730;2023-04-04T11:57:47;90007.75;;;11.33;100.00
59274;BME280;45044;41.572;24.730;2023-04-04T12:00:32;90010.63;;;11.22;100.00
59274;BME280;45044;41.572;24.730;2023-04-04T12:03:03;90015.22;;;11.18;100.00
59274;BME280;45044;41.572;24.730;2023-04-04T12:05:31;90008.22;;;10.74;100.00
59274;BME280;45044;41.572;24.730;2023-04-04T12:07:58;90016.50;;;10.52;100.00
59274;BME280;45044;41.572;24.730;2023-04-04T12:10:30;90013.00;;;10.35;100.00
59274;BME280;45044;41.572;24.730;2023-04-04T12:12:57;90014.75;;;10.41;100.00
59274;BME280;45044;41.572;24.730;2023-04-04T12:15:27;90016.09;;;10.53;100.00
59274;BME280;45044;41.572;24.730;2023-04-04T12:17:54;90023.97;;;10.74;100.00
59274;BME280;45044;41.572;24.730;2023-04-04T12:20:22;90014.53;;;10.76;100.00
59274;BME280;45044;41.572;24.730;2023-04-04T12:22:51;90020.00;;;10.65;100.00
59274;BME280;45044;41.572;24.730;2023-04-04T12:25:22;90013.47;;;10.74;100.00
59274;BME280;45044;41.572;24.730;2023-04-04T12:27:50;90010.16;;;10.70;100.00
59274;BME280;45044;41.572;24.730;2023-04-04T12:30:18;90011.47;;;10.37;100.00
59274;BME280;45044;41.572;24.730;2023-04-04T12:32:46;90010.91;;;10.26;100.00
59274;BME280;45044;41.572;24.730;2023-04-04T12:35:15;90006.72;;;10.08;100.00
59274;BME280;45044;41.572;24.730;2023-04-04T12:38:04;90012.13;;;10.21;100.00
59274;BME280;45044;41.572;24.730;2023-04-04T12:40:37;90011.94;;;10.32;100.00
59274;BME280;45044;41.572;24.730;2023-04-04T12:43:08;90010.78;;;10.33;100.00
59274;BME280;45044;41.572;24.730;2023-04-04T12:45:38;90009.56;;;10.17;100.00
59274;BME280;45044;41.572;24.730;2023-04-04T12:48:13;90010.09;;;10.53;100.00
59274;BME280;45044;41.572;24.730;2023-04-04T12:50:58;90005.09;;;10.79;100.00
59274;BME280;45044;41.572;24.730;2023-04-04T12:53:28;90003.50;;;11.02;100.00
59274;BME280;45044;41.572;24.730;2023-04-04T12:56:00;90007.94;;;11.05;100.00
59274;BME280;45044;41.572;24.730;2023-04-04T12:58:28;90002.63;;;11.09;100.00
59274;BME280;45044;41.572;24.730;2023-04-04T13:00:58;90001.75;;;11.32;100.00
59274;BME280;45044;41.572;24.730;2023-04-04T13:03:27;89995.44;;;10.72;100.00
59274;BME280;45044;41.572;24.730;2023-04-04T13:05:54;89996.78;;;11.01;100.00
59274;BME280;45044;41.572;24.730;2023-04-04T13:08:21;89997.34;;;10.72;100.00
59274;BME280;45044;41.572;24.730;2023-04-04T13:11:03;89993.84;;;11.16;100.00
59274;BME280;45044;41.572;24.730;2023-04-04T13:13:39;89990.09;;;11.33;100.00